sensor_id;sensor_type;location;lat;lon;timestamp;temperature;humidity
54700;DHT22;40599;53.132;6.090;2022-11-25T00:00:52;7.50;99.90
54700;DHT22;40599;53.132;6.090;2022-11-25T00:03:17;7.70;99.90
54700;DHT22;40599;53.132;6.090;2022-11-25T00:05:43;7.70;99.90
54700;DHT22;40599;53.132;6.090;2022-11-25T00:08:09;7.60;99.90
54700;DHT22;40599;53.132;6.090;2022-11-25T00:10:34;7.70;99.90
54700;DHT22;40599;53.132;6.090;2022-11-25T00:13:00;7.60;99.90
54700;DHT22;40599;53.132;6.090;2022-11-25T00:15:25;7.50;99.90
54700;DHT22;40599;53.132;6.090;2022-11-25T00:17:51;7.60;99.90
54700;DHT22;40599;53.132;6.090;2022-11-25T00:20:17;7.50;99.90
54700;DHT22;40599;53.132;6.090;2022-11-25T00:22:45;7.60;99.90
54700;DHT22;40599;53.132;6.090;2022-11-25T00:25:11;7.90;99.90
54700;DHT22;40599;53.132;6.090;2022-11-25T00:27:36;7.50;99.90
54700;DHT22;40599;53.132;6.090;2022-11-25T00:30:02;7.60;99.90
54700;DHT22;40599;53.132;6.090;2022-11-25T00:32:28;7.70;99.90
54700;DHT22;40599;53.132;6.090;2022-11-25T00:34:53;7.50;99.90
54700;DHT22;40599;53.132;6.090;2022-11-25T00:37:19;7.60;99.90
54700;DHT22;40599;53.132;6.090;2022-11-25T00:39:45;7.60;99.90
54700;DHT22;40599;53.132;6.090;2022-11-25T00:42:10;7.60;99.90
54700;DHT22;40599;53.132;6.090;2022-11-25T00:44:55;7.40;99.90
54700;DHT22;40599;53.132;6.090;2022-11-25T00:47:20;7.60;99.90
54700;DHT22;40599;53.132;6.090;2022-11-25T00:49:50;7.50;99.90
54700;DHT22;40599;53.132;6.090;2022-11-25T00:52:17;7.70;99.90
54700;DHT22;40599;53.132;6.090;2022-11-25T00:54:43;7.70;99.90
54700;DHT22;40599;53.132;6.090;2022-11-25T00:57:10;7.70;99.90
54700;DHT22;40599;53.132;6.090;2022-11-25T00:59:36;7.70;99.90
54700;DHT22;40599;53.132;6.090;2022-11-25T01:02:01;7.50;99.90
54700;DHT22;40599;53.132;6.090;2022-11-25T01:04:27;7.70;99.90
54700;DHT22;40599;53.132;6.090;2022-11-25T01:06:53;7.80;99.90
54700;DHT22;40599;53.132;6.090;2022-11-25T01:09:21;7.80;99.90
54700;DHT22;40599;53.132;6.090;2022-11-25T01:11:48;7.60;99.90
54700;DHT22;40599;53.132;6.090;2022-11-25T01:14:13;7.80;99.90
54700;DHT22;40599;53.132;6.090;2022-11-25T01:16:39;7.80;99.90
54700;DHT22;40599;53.132;6.090;2022-11-25T01:19:05;7.80;99.90
54700;DHT22;40599;53.132;6.090;2022-11-25T01:21:31;7.80;99.90
54700;DHT22;40599;53.132;6.090;2022-11-25T01:23:57;8.00;99.90
54700;DHT22;40599;53.132;6.090;2022-11-25T01:26:24;7.90;99.90
54700;DHT22;40599;53.132;6.090;2022-11-25T01:28:57;7.90;99.90
54700;DHT22;40599;53.132;6.090;2022-11-25T01:31:23;7.80;99.90
54700;DHT22;40599;53.132;6.090;2022-11-25T01:34:23;7.90;99.90
54700;DHT22;40599;53.132;6.090;2022-11-25T01:36:41;7.60;99.90
54700;DHT22;40599;53.132;6.090;2022-11-25T01:39:07;7.90;99.90
54700;DHT22;40599;53.132;6.090;2022-11-25T01:41:33;8.00;99.90
54700;DHT22;40599;53.132;6.090;2022-11-25T01:44:12;7.90;99.90
54700;DHT22;40599;53.132;6.090;2022-11-25T01:49:15;7.90;99.90
54700;DHT22;40599;53.132;6.090;2022-11-25T01:51:43;7.90;99.90
54700;DHT22;40599;53.132;6.090;2022-11-25T01:54:10;7.90;99.90
54700;DHT22;40599;53.132;6.090;2022-11-25T01:56:38;7.60;99.90
54700;DHT22;40599;53.132;6.090;2022-11-25T01:59:07;7.90;99.90
54700;DHT22;40599;53.132;6.090;2022-11-25T02:01:33;7.60;99.90
54700;DHT22;40599;53.132;6.090;2022-11-25T02:03:59;7.90;99.90
54700;DHT22;40599;53.132;6.090;2022-11-25T02:06:29;7.70;99.90
54700;DHT22;40599;53.132;6.090;2022-11-25T02:08:57;7.90;99.90
54700;DHT22;40599;53.132;6.090;2022-11-25T02:11:26;7.80;99.90
54700;DHT22;40599;53.132;6.090;2022-11-25T02:13:52;7.80;99.90
54700;DHT22;40599;53.132;6.090;2022-11-25T02:16:19;7.80;99.90
54700;DHT22;40599;53.132;6.090;2022-11-25T02:18:44;7.60;99.90
54700;DHT22;40599;53.132;6.090;2022-11-25T02:21:10;7.80;99.90
54700;DHT22;40599;53.132;6.090;2022-11-25T02:23:39;7.80;99.90
54700;DHT22;40599;53.132;6.090;2022-11-25T02:26:07;7.60;99.90
54700;DHT22;40599;53.132;6.090;2022-11-25T02:28:33;7.60;99.90
54700;DHT22;40599;53.132;6.090;2022-11-25T02:30:59;8.10;99.90
54700;DHT22;40599;53.132;6.090;2022-11-25T02:33:25;7.80;99.90
54700;DHT22;40599;53.132;6.090;2022-11-25T02:40:52;7.60;99.90
54700;DHT22;40599;53.132;6.090;2022-11-25T02:43:19;7.80;99.90
54700;DHT22;40599;53.132;6.090;2022-11-25T02:46:19;7.60;99.90
54700;DHT22;40599;53.132;6.090;2022-11-25T02:48:38;7.70;99.90
54700;DHT22;40599;53.132;6.090;2022-11-25T02:51:04;7.90;99.90
54700;DHT22;40599;53.132;6.090;2022-11-25T02:53:30;7.70;99.90
54700;DHT22;40599;53.132;6.090;2022-11-25T02:55:56;7.70;99.90
54700;DHT22;40599;53.132;6.090;2022-11-25T02:58:22;7.70;99.90
54700;DHT22;40599;53.132;6.090;2022-11-25T03:00:47;7.70;99.90
54700;DHT22;40599;53.132;6.090;2022-11-25T03:03:13;7.50;99.90
54700;DHT22;40599;53.132;6.090;2022-11-25T03:05:39;7.80;99.90
54700;DHT22;40599;53.132;6.090;2022-11-25T03:08:05;7.80;99.90
54700;DHT22;40599;53.132;6.090;2022-11-25T03:10:31;7.70;99.90
54700;DHT22;40599;53.132;6.090;2022-11-25T03:12:56;7.90;99.90
54700;DHT22;40599;53.132;6.090;2022-11-25T03:15:22;7.90;99.90
54700;DHT22;40599;53.132;6.090;2022-11-25T03:17:48;8.00;99.90
54700;DHT22;40599;53.132;6.090;2022-11-25T03:20:14;7.80;99.90
54700;DHT22;40599;53.132;6.090;2022-11-25T03:22:40;7.90;99.90
54700;DHT22;40599;53.132;6.090;2022-11-25T03:25:06;7.90;99.90
54700;DHT22;40599;53.132;6.090;2022-11-25T03:27:33;7.90;99.90
54700;DHT22;40599;53.132;6.090;2022-11-25T03:29:58;8.00;99.90
54700;DHT22;40599;53.132;6.090;2022-11-25T03:32:24;7.50;99.90
54700;DHT22;40599;53.132;6.090;2022-11-25T03:34:50;8.00;99.90
54700;DHT22;40599;53.132;6.090;2022-11-25T03:37:15;7.90;99.90
54700;DHT22;40599;53.132;6.090;2022-11-25T03:39:41;7.90;99.90
54700;DHT22;40599;53.132;6.090;2022-11-25T03:42:06;7.90;99.90
54700;DHT22;40599;53.132;6.090;2022-11-25T03:44:32;7.90;99.90
54700;DHT22;40599;53.132;6.090;2022-11-25T03:46:58;7.70;99.90
54700;DHT22;40599;53.132;6.090;2022-11-25T03:49:23;8.00;99.90
54700;DHT22;40599;53.132;6.090;2022-11-25T03:51:49;8.00;99.90
54700;DHT22;40599;53.132;6.090;2022-11-25T03:54:15;8.00;99.90
54700;DHT22;40599;53.132;6.090;2022-11-25T03:56:40;8.00;99.90
54700;DHT22;40599;53.132;6.090;2022-11-25T03:59:06;8.00;99.90
54700;DHT22;40599;53.132;6.090;2022-11-25T04:01:32;8.00;99.90
54700;DHT22;40599;53.132;6.090;2022-11-25T04:03:57;8.00;99.90
54700;DHT22;40599;53.132;6.090;2022-11-25T04:06:23;8.00;99.90
54700;DHT22;40599;53.132;6.090;2022-11-25T04:08:49;8.00;99.90
54700;DHT22;40599;53.132;6.090;2022-11-25T04:11:15;8.00;99.90
54700;DHT22;40599;53.132;6.090;2022-11-25T04:13:41;8.00;99.90
54700;DHT22;40599;53.132;6.090;2022-11-25T04:16:13;8.00;99.90
54700;DHT22;40599;53.132;6.090;2022-11-25T04:18:39;7.90;99.90
54700;DHT22;40599;53.132;6.090;2022-11-25T04:21:05;7.90;99.90
54700;DHT22;40599;53.132;6.090;2022-11-25T04:23:30;8.00;99.90
54700;DHT22;40599;53.132;6.090;2022-11-25T04:25:56;8.00;99.90
54700;DHT22;40599;53.132;6.090;2022-11-25T04:28:21;7.90;99.90
54700;DHT22;40599;53.132;6.090;2022-11-25T04:30:47;7.90;99.90
54700;DHT22;40599;53.132;6.090;2022-11-25T04:33:12;8.00;99.90
54700;DHT22;40599;53.132;6.090;2022-11-25T04:35:38;8.00;99.90
54700;DHT22;40599;53.132;6.090;2022-11-25T04:38:03;7.80;99.90
54700;DHT22;40599;53.132;6.090;2022-11-25T04:40:29;7.90;99.90
54700;DHT22;40599;53.132;6.090;2022-11-25T04:42:55;8.00;99.90
54700;DHT22;40599;53.132;6.090;2022-11-25T04:45:20;8.00;99.90
54700;DHT22;40599;53.132;6.090;2022-11-25T04:47:46;7.90;99.90
54700;DHT22;40599;53.132;6.090;2022-11-25T04:50:13;8.00;99.90
54700;DHT22;40599;53.132;6.090;2022-11-25T04:52:38;8.00;99.90
54700;DHT22;40599;53.132;6.090;2022-11-25T04:55:04;8.10;99.90
54700;DHT22;40599;53.132;6.090;2022-11-25T04:57:30;8.00;99.90
54700;DHT22;40599;53.132;6.090;2022-11-25T04:59:55;8.00;99.90
54700;DHT22;40599;53.132;6.090;2022-11-25T05:02:22;8.00;99.90
54700;DHT22;40599;53.132;6.090;2022-11-25T05:04:49;8.00;99.90
54700;DHT22;40599;53.132;6.090;2022-11-25T05:07:16;8.00;99.90
54700;DHT22;40599;53.132;6.090;2022-11-25T05:09:41;7.90;99.90
54700;DHT22;40599;53.132;6.090;2022-11-25T05:12:09;8.00;99.90
54700;DHT22;40599;53.132;6.090;2022-11-25T05:14:35;8.00;99.90
54700;DHT22;40599;53.132;6.090;2022-11-25T05:17:01;8.00;99.90
54700;DHT22;40599;53.132;6.090;2022-11-25T05:19:27;8.00;99.90
54700;DHT22;40599;53.132;6.090;2022-11-25T05:21:52;8.10;99.90
54700;DHT22;40599;53.132;6.090;2022-11-25T05:24:18;8.10;99.90
54700;DHT22;40599;53.132;6.090;2022-11-25T05:26:44;8.00;99.90
54700;DHT22;40599;53.132;6.090;2022-11-25T05:29:09;8.00;99.90
54700;DHT22;40599;53.132;6.090;2022-11-25T05:31:35;8.00;99.90
54700;DHT22;40599;53.132;6.090;2022-11-25T05:34:01;8.00;99.90
54700;DHT22;40599;53.132;6.090;2022-11-25T05:36:27;8.00;99.90
54700;DHT22;40599;53.132;6.090;2022-11-25T05:38:53;8.10;99.90
54700;DHT22;40599;53.132;6.090;2022-11-25T05:41:19;8.10;99.90
54700;DHT22;40599;53.132;6.090;2022-11-25T05:43:45;8.10;99.90
54700;DHT22;40599;53.132;6.090;2022-11-25T05:46:12;8.10;99.90
54700;DHT22;40599;53.132;6.090;2022-11-25T05:48:37;8.20;99.90
54700;DHT22;40599;53.132;6.090;2022-11-25T05:51:03;8.10;99.90
54700;DHT22;40599;53.132;6.090;2022-11-25T05:53:29;8.10;99.90
54700;DHT22;40599;53.132;6.090;2022-11-25T05:55:59;8.10;99.90
54700;DHT22;40599;53.132;6.090;2022-11-25T05:58:26;8.10;99.90
54700;DHT22;40599;53.132;6.090;2022-11-25T06:00:52;8.20;99.90
54700;DHT22;40599;53.132;6.090;2022-11-25T06:03:17;8.10;99.90
54700;DHT22;40599;53.132;6.090;2022-11-25T06:05:43;8.20;99.90
54700;DHT22;40599;53.132;6.090;2022-11-25T06:08:09;8.20;99.90
54700;DHT22;40599;53.132;6.090;2022-11-25T06:10:38;8.10;99.90
54700;DHT22;40599;53.132;6.090;2022-11-25T06:13:05;8.10;99.90
54700;DHT22;40599;53.132;6.090;2022-11-25T06:15:31;8.20;99.90
54700;DHT22;40599;53.132;6.090;2022-11-25T06:17:57;8.10;99.90
54700;DHT22;40599;53.132;6.090;2022-11-25T06:20:22;8.10;99.90
54700;DHT22;40599;53.132;6.090;2022-11-25T06:22:48;8.20;99.90
54700;DHT22;40599;53.132;6.090;2022-11-25T06:25:13;8.20;99.90
54700;DHT22;40599;53.132;6.090;2022-11-25T06:27:39;8.10;99.90
54700;DHT22;40599;53.132;6.090;2022-11-25T06:30:05;8.20;99.90
54700;DHT22;40599;53.132;6.090;2022-11-25T06:32:31;8.20;99.90
54700;DHT22;40599;53.132;6.090;2022-11-25T06:34:57;8.10;99.90
54700;DHT22;40599;53.132;6.090;2022-11-25T06:37:23;8.10;99.90
54700;DHT22;40599;53.132;6.090;2022-11-25T06:39:48;8.10;99.90
54700;DHT22;40599;53.132;6.090;2022-11-25T06:42:14;8.00;99.90
54700;DHT22;40599;53.132;6.090;2022-11-25T06:44:39;8.10;99.90
54700;DHT22;40599;53.132;6.090;2022-11-25T06:47:05;8.20;99.90
54700;DHT22;40599;53.132;6.090;2022-11-25T06:49:31;8.10;99.90
54700;DHT22;40599;53.132;6.090;2022-11-25T06:51:56;8.20;99.90
54700;DHT22;40599;53.132;6.090;2022-11-25T06:54:22;8.10;99.90
54700;DHT22;40599;53.132;6.090;2022-11-25T06:56:48;8.10;99.90
54700;DHT22;40599;53.132;6.090;2022-11-25T06:59:16;8.10;99.90
54700;DHT22;40599;53.132;6.090;2022-11-25T07:01:42;7.90;99.90
54700;DHT22;40599;53.132;6.090;2022-11-25T07:04:07;8.10;99.90
54700;DHT22;40599;53.132;6.090;2022-11-25T07:06:33;8.00;99.90
54700;DHT22;40599;53.132;6.090;2022-11-25T07:08:58;8.10;99.90
54700;DHT22;40599;53.132;6.090;2022-11-25T07:13:50;8.00;99.90
54700;DHT22;40599;53.132;6.090;2022-11-25T07:16:17;7.90;99.90
54700;DHT22;40599;53.132;6.090;2022-11-25T07:18:42;7.90;99.90
54700;DHT22;40599;53.132;6.090;2022-11-25T07:21:09;7.90;99.90
54700;DHT22;40599;53.132;6.090;2022-11-25T07:23:35;7.80;99.90
54700;DHT22;40599;53.132;6.090;2022-11-25T07:26:05;7.90;99.90
54700;DHT22;40599;53.132;6.090;2022-11-25T07:28:31;7.80;99.90
54700;DHT22;40599;53.132;6.090;2022-11-25T07:31:07;7.80;99.90
54700;DHT22;40599;53.132;6.090;2022-11-25T07:33:34;7.80;99.90
54700;DHT22;40599;53.132;6.090;2022-11-25T07:36:00;7.80;99.90
54700;DHT22;40599;53.132;6.090;2022-11-25T07:38:26;7.80;99.90
54700;DHT22;40599;53.132;6.090;2022-11-25T07:40:52;8.10;99.90
54700;DHT22;40599;53.132;6.090;2022-11-25T07:43:17;7.70;99.90
54700;DHT22;40599;53.132;6.090;2022-11-25T07:45:43;7.70;99.90
54700;DHT22;40599;53.132;6.090;2022-11-25T07:48:09;7.70;99.90
54700;DHT22;40599;53.132;6.090;2022-11-25T07:50:34;7.70;99.90
54700;DHT22;40599;53.132;6.090;2022-11-25T07:53:00;7.70;99.90
54700;DHT22;40599;53.132;6.090;2022-11-25T07:55:25;7.70;99.90
54700;DHT22;40599;53.132;6.090;2022-11-25T07:57:51;7.60;99.90
54700;DHT22;40599;53.132;6.090;2022-11-25T08:00:17;7.70;99.90
54700;DHT22;40599;53.132;6.090;2022-11-25T08:02:42;7.60;99.90
54700;DHT22;40599;53.132;6.090;2022-11-25T08:05:08;7.60;99.90
54700;DHT22;40599;53.132;6.090;2022-11-25T08:07:34;7.60;99.90
54700;DHT22;40599;53.132;6.090;2022-11-25T08:09:59;7.60;99.90
54700;DHT22;40599;53.132;6.090;2022-11-25T08:12:25;6.80;99.90
54700;DHT22;40599;53.132;6.090;2022-11-25T08:14:50;7.60;99.90
54700;DHT22;40599;53.132;6.090;2022-11-25T08:17:16;7.60;99.90
54700;DHT22;40599;53.132;6.090;2022-11-25T08:19:42;7.60;99.90
54700;DHT22;40599;53.132;6.090;2022-11-25T08:22:07;7.60;99.90
54700;DHT22;40599;53.132;6.090;2022-11-25T08:24:33;7.60;99.90
54700;DHT22;40599;53.132;6.090;2022-11-25T08:26:58;7.70;99.90
54700;DHT22;40599;53.132;6.090;2022-11-25T08:29:25;7.70;99.90
54700;DHT22;40599;53.132;6.090;2022-11-25T08:31:51;7.70;99.90
54700;DHT22;40599;53.132;6.090;2022-11-25T08:34:21;7.70;99.90
54700;DHT22;40599;53.132;6.090;2022-11-25T08:36:56;7.60;99.90
54700;DHT22;40599;53.132;6.090;2022-11-25T08:39:21;7.80;99.90
54700;DHT22;40599;53.132;6.090;2022-11-25T08:41:47;7.70;99.90
54700;DHT22;40599;53.132;6.090;2022-11-25T08:44:13;7.70;99.90
54700;DHT22;40599;53.132;6.090;2022-11-25T08:46:39;7.80;99.90
54700;DHT22;40599;53.132;6.090;2022-11-25T08:49:05;7.80;99.90
54700;DHT22;40599;53.132;6.090;2022-11-25T08:51:32;7.80;99.90
54700;DHT22;40599;53.132;6.090;2022-11-25T08:54:02;7.80;99.90
54700;DHT22;40599;53.132;6.090;2022-11-25T08:56:28;7.90;99.90
54700;DHT22;40599;53.132;6.090;2022-11-25T08:58:54;7.90;99.90
54700;DHT22;40599;53.132;6.090;2022-11-25T09:01:20;7.90;99.90
54700;DHT22;40599;53.132;6.090;2022-11-25T09:03:47;8.00;99.90
54700;DHT22;40599;53.132;6.090;2022-11-25T09:06:13;7.90;99.90
54700;DHT22;40599;53.132;6.090;2022-11-25T09:08:39;7.90;99.90
54700;DHT22;40599;53.132;6.090;2022-11-25T09:11:05;8.00;99.90
54700;DHT22;40599;53.132;6.090;2022-11-25T09:13:31;8.00;99.90
54700;DHT22;40599;53.132;6.090;2022-11-25T09:15:57;8.10;99.90
54700;DHT22;40599;53.132;6.090;2022-11-25T09:18:23;8.10;99.90
54700;DHT22;40599;53.132;6.090;2022-11-25T09:20:54;8.10;99.90
54700;DHT22;40599;53.132;6.090;2022-11-25T09:23:22;8.20;99.90
54700;DHT22;40599;53.132;6.090;2022-11-25T09:25:51;8.30;99.90
54700;DHT22;40599;53.132;6.090;2022-11-25T09:28:17;8.30;99.90
54700;DHT22;40599;53.132;6.090;2022-11-25T09:30:43;8.30;99.90
54700;DHT22;40599;53.132;6.090;2022-11-25T09:33:09;8.30;99.90
54700;DHT22;40599;53.132;6.090;2022-11-25T09:35:35;8.40;99.90
54700;DHT22;40599;53.132;6.090;2022-11-25T09:38:00;8.40;99.90
54700;DHT22;40599;53.132;6.090;2022-11-25T09:40:29;8.50;99.90
54700;DHT22;40599;53.132;6.090;2022-11-25T09:42:58;8.40;99.90
54700;DHT22;40599;53.132;6.090;2022-11-25T09:45:46;8.50;99.90
54700;DHT22;40599;53.132;6.090;2022-11-25T09:53:40;8.60;99.90
54700;DHT22;40599;53.132;6.090;2022-11-25T09:58:51;8.60;99.90
54700;DHT22;40599;53.132;6.090;2022-11-25T10:01:20;8.70;99.90
54700;DHT22;40599;53.132;6.090;2022-11-25T10:03:55;8.80;99.90
54700;DHT22;40599;53.132;6.090;2022-11-25T10:06:23;8.80;99.90
54700;DHT22;40599;53.132;6.090;2022-11-25T10:08:51;8.80;99.90
54700;DHT22;40599;53.132;6.090;2022-11-25T10:16:29;9.00;99.90
54700;DHT22;40599;53.132;6.090;2022-11-25T10:18:58;8.90;99.90
54700;DHT22;40599;53.132;6.090;2022-11-25T10:21:24;8.90;99.90
54700;DHT22;40599;53.132;6.090;2022-11-25T10:23:50;9.00;99.90
54700;DHT22;40599;53.132;6.090;2022-11-25T10:26:16;9.10;99.90
54700;DHT22;40599;53.132;6.090;2022-11-25T10:28:45;9.10;99.90
54700;DHT22;40599;53.132;6.090;2022-11-25T10:31:19;9.10;99.90
54700;DHT22;40599;53.132;6.090;2022-11-25T10:36:17;9.00;99.90
54700;DHT22;40599;53.132;6.090;2022-11-25T10:41:14;9.20;99.90
54700;DHT22;40599;53.132;6.090;2022-11-25T10:43:41;9.30;99.90
54700;DHT22;40599;53.132;6.090;2022-11-25T10:48:59;9.40;99.90
54700;DHT22;40599;53.132;6.090;2022-11-25T10:52:09;9.50;99.90
54700;DHT22;40599;53.132;6.090;2022-11-25T10:54:25;9.60;99.90
54700;DHT22;40599;53.132;6.090;2022-11-25T10:56:52;9.70;99.90
54700;DHT22;40599;53.132;6.090;2022-11-25T10:59:39;9.70;99.90
54700;DHT22;40599;53.132;6.090;2022-11-25T11:05:46;9.90;99.90
54700;DHT22;40599;53.132;6.090;2022-11-25T11:07:41;9.90;99.90
54700;DHT22;40599;53.132;6.090;2022-11-25T11:15:27;10.00;99.90
54700;DHT22;40599;53.132;6.090;2022-11-25T11:17:53;10.00;99.90
54700;DHT22;40599;53.132;6.090;2022-11-25T11:20:21;9.90;99.90
54700;DHT22;40599;53.132;6.090;2022-11-25T11:22:48;9.90;99.90
54700;DHT22;40599;53.132;6.090;2022-11-25T11:27:47;9.90;99.90
54700;DHT22;40599;53.132;6.090;2022-11-25T11:32:41;9.80;99.90
54700;DHT22;40599;53.132;6.090;2022-11-25T11:35:14;9.80;99.90
54700;DHT22;40599;53.132;6.090;2022-11-25T11:37:43;9.80;99.90
54700;DHT22;40599;53.132;6.090;2022-11-25T11:55:37;10.00;99.90
54700;DHT22;40599;53.132;6.090;2022-11-25T12:00:34;10.10;99.90
54700;DHT22;40599;53.132;6.090;2022-11-25T12:05:30;10.20;99.90
54700;DHT22;40599;53.132;6.090;2022-11-25T12:16:03;10.10;99.90
54700;DHT22;40599;53.132;6.090;2022-11-25T12:23:52;10.20;99.90
54700;DHT22;40599;53.132;6.090;2022-11-25T12:26:26;10.30;99.90
54700;DHT22;40599;53.132;6.090;2022-11-25T12:28:57;10.30;99.90
54700;DHT22;40599;53.132;6.090;2022-11-25T12:31:25;10.30;99.90
54700;DHT22;40599;53.132;6.090;2022-11-25T12:33:59;10.40;99.90
54700;DHT22;40599;53.132;6.090;2022-11-25T12:36:32;10.40;99.90
54700;DHT22;40599;53.132;6.090;2022-11-25T12:39:44;10.40;99.90
54700;DHT22;40599;53.132;6.090;2022-11-25T12:41:51;10.40;99.90
54700;DHT22;40599;53.132;6.090;2022-11-25T12:46:47;10.50;99.90
54700;DHT22;40599;53.132;6.090;2022-11-25T12:49:18;10.50;99.90
54700;DHT22;40599;53.132;6.090;2022-11-25T13:07:30;10.60;99.90
54700;DHT22;40599;53.132;6.090;2022-11-25T13:17:41;10.70;99.90
54700;DHT22;40599;53.132;6.090;2022-11-25T13:20:23;10.70;99.90
54700;DHT22;40599;53.132;6.090;2022-11-25T13:23:07;10.70;99.90
54700;DHT22;40599;53.132;6.090;2022-11-25T13:25:33;10.80;99.90
54700;DHT22;40599;53.132;6.090;2022-11-25T13:28:00;10.90;99.90
54700;DHT22;40599;53.132;6.090;2022-11-25T13:35:57;11.00;99.90
54700;DHT22;40599;53.132;6.090;2022-11-25T13:43:22;10.90;99.90
54700;DHT22;40599;53.132;6.090;2022-11-25T13:45:48;11.00;99.90
54700;DHT22;40599;53.132;6.090;2022-11-25T13:50:39;10.90;99.90
54700;DHT22;40599;53.132;6.090;2022-11-25T13:53:07;10.90;99.90
54700;DHT22;40599;53.132;6.090;2022-11-25T13:55:42;11.00;99.90
54700;DHT22;40599;53.132;6.090;2022-11-25T14:16:09;11.40;99.90
54700;DHT22;40599;53.132;6.090;2022-11-25T14:18:46;11.30;99.90
54700;DHT22;40599;53.132;6.090;2022-11-25T14:26:39;11.00;99.90
54700;DHT22;40599;53.132;6.090;2022-11-25T14:29:12;10.90;99.90
54700;DHT22;40599;53.132;6.090;2022-11-25T14:31:47;10.90;99.90
54700;DHT22;40599;53.132;6.090;2022-11-25T14:34:16;10.90;99.90
54700;DHT22;40599;53.132;6.090;2022-11-25T14:36:46;10.90;99.90
54700;DHT22;40599;53.132;6.090;2022-11-25T14:39:18;10.80;99.90
54700;DHT22;40599;53.132;6.090;2022-11-25T14:41:53;10.80;99.90
54700;DHT22;40599;53.132;6.090;2022-11-25T14:44:22;10.80;99.90
54700;DHT22;40599;53.132;6.090;2022-11-25T14:46:53;10.70;99.90
54700;DHT22;40599;53.132;6.090;2022-11-25T14:49:19;10.60;99.90
54700;DHT22;40599;53.132;6.090;2022-11-25T14:51:50;10.50;99.90
54700;DHT22;40599;53.132;6.090;2022-11-25T14:54:16;10.40;99.90
54700;DHT22;40599;53.132;6.090;2022-11-25T14:56:42;10.40;99.90
54700;DHT22;40599;53.132;6.090;2022-11-25T14:59:09;10.30;99.90
54700;DHT22;40599;53.132;6.090;2022-11-25T15:01:37;10.20;99.90
54700;DHT22;40599;53.132;6.090;2022-11-25T15:04:09;10.20;99.90
54700;DHT22;40599;53.132;6.090;2022-11-25T15:06:38;10.10;99.90
54700;DHT22;40599;53.132;6.090;2022-11-25T15:09:19;10.10;99.90
54700;DHT22;40599;53.132;6.090;2022-11-25T15:11:45;10.10;99.90
54700;DHT22;40599;53.132;6.090;2022-11-25T15:14:13;10.00;99.90
54700;DHT22;40599;53.132;6.090;2022-11-25T15:16:40;10.00;99.90
54700;DHT22;40599;53.132;6.090;2022-11-25T15:19:15;10.00;99.90
54700;DHT22;40599;53.132;6.090;2022-11-25T15:21:42;9.90;99.90
54700;DHT22;40599;53.132;6.090;2022-11-25T15:24:22;10.00;99.90
54700;DHT22;40599;53.132;6.090;2022-11-25T15:26:52;9.90;99.90
54700;DHT22;40599;53.132;6.090;2022-11-25T15:29:17;9.90;99.90
54700;DHT22;40599;53.132;6.090;2022-11-25T15:31:44;9.80;99.90
54700;DHT22;40599;53.132;6.090;2022-11-25T15:34:11;8.60;99.90
54700;DHT22;40599;53.132;6.090;2022-11-25T15:36:37;9.90;99.90
54700;DHT22;40599;53.132;6.090;2022-11-25T15:41:48;9.60;99.90
54700;DHT22;40599;53.132;6.090;2022-11-25T15:44:18;9.60;99.90
54700;DHT22;40599;53.132;6.090;2022-11-25T15:47:20;9.60;99.90
54700;DHT22;40599;53.132;6.090;2022-11-25T15:49:37;9.60;99.90
54700;DHT22;40599;53.132;6.090;2022-11-25T15:54:29;9.50;99.90
54700;DHT22;40599;53.132;6.090;2022-11-25T15:56:57;9.40;99.90
54700;DHT22;40599;53.132;6.090;2022-11-25T16:12:41;9.10;99.90
54700;DHT22;40599;53.132;6.090;2022-11-25T16:15:16;9.00;99.90
54700;DHT22;40599;53.132;6.090;2022-11-25T16:17:42;8.90;99.90
54700;DHT22;40599;53.132;6.090;2022-11-25T16:20:15;8.90;99.90
54700;DHT22;40599;53.132;6.090;2022-11-25T16:22:42;8.90;99.90
54700;DHT22;40599;53.132;6.090;2022-11-25T16:25:08;8.80;99.90
54700;DHT22;40599;53.132;6.090;2022-11-25T16:27:35;8.70;99.90
54700;DHT22;40599;53.132;6.090;2022-11-25T16:32:33;8.60;99.90
54700;DHT22;40599;53.132;6.090;2022-11-25T16:35:10;8.60;99.90
54700;DHT22;40599;53.132;6.090;2022-11-25T16:37:37;8.50;99.90
54700;DHT22;40599;53.132;6.090;2022-11-25T16:40:02;8.40;99.90
54700;DHT22;40599;53.132;6.090;2022-11-25T16:42:28;8.40;99.90
54700;DHT22;40599;53.132;6.090;2022-11-25T16:44:54;8.40;99.90
54700;DHT22;40599;53.132;6.090;2022-11-25T16:47:20;8.40;99.90
54700;DHT22;40599;53.132;6.090;2022-11-25T16:49:46;8.30;99.90
54700;DHT22;40599;53.132;6.090;2022-11-25T16:52:12;8.30;99.90
54700;DHT22;40599;53.132;6.090;2022-11-25T16:54:37;8.30;99.90
54700;DHT22;40599;53.132;6.090;2022-11-25T16:57:03;8.30;99.90
54700;DHT22;40599;53.132;6.090;2022-11-25T17:01:56;8.20;99.90
54700;DHT22;40599;53.132;6.090;2022-11-25T17:04:22;8.30;99.90
54700;DHT22;40599;53.132;6.090;2022-11-25T17:06:47;8.20;99.90
54700;DHT22;40599;53.132;6.090;2022-11-25T17:09:13;8.20;99.90
54700;DHT22;40599;53.132;6.090;2022-11-25T17:11:43;8.20;99.90
54700;DHT22;40599;53.132;6.090;2022-11-25T17:14:15;8.20;99.90
54700;DHT22;40599;53.132;6.090;2022-11-25T17:16:42;8.10;99.90
54700;DHT22;40599;53.132;6.090;2022-11-25T17:19:09;8.10;99.90
54700;DHT22;40599;53.132;6.090;2022-11-25T17:21:37;8.10;99.90
54700;DHT22;40599;53.132;6.090;2022-11-25T17:24:05;8.10;99.90
54700;DHT22;40599;53.132;6.090;2022-11-25T17:26:35;8.10;99.90
54700;DHT22;40599;53.132;6.090;2022-11-25T17:29:02;8.00;99.90
54700;DHT22;40599;53.132;6.090;2022-11-25T17:31:30;8.00;99.90
54700;DHT22;40599;53.132;6.090;2022-11-25T17:33:56;8.00;99.90
54700;DHT22;40599;53.132;6.090;2022-11-25T17:36:22;7.90;99.90
54700;DHT22;40599;53.132;6.090;2022-11-25T17:38:47;7.80;99.90
54700;DHT22;40599;53.132;6.090;2022-11-25T17:41:14;7.80;99.90
54700;DHT22;40599;53.132;6.090;2022-11-25T17:43:40;7.80;99.90
54700;DHT22;40599;53.132;6.090;2022-11-25T17:46:10;7.80;99.90
54700;DHT22;40599;53.132;6.090;2022-11-25T17:48:36;7.70;99.90
54700;DHT22;40599;53.132;6.090;2022-11-25T17:51:02;7.70;99.90
54700;DHT22;40599;53.132;6.090;2022-11-25T17:53:28;7.70;99.90
54700;DHT22;40599;53.132;6.090;2022-11-25T17:55:54;7.60;99.90
54700;DHT22;40599;53.132;6.090;2022-11-25T17:58:19;7.60;99.90
54700;DHT22;40599;53.132;6.090;2022-11-25T18:00:45;7.60;99.90
54700;DHT22;40599;53.132;6.090;2022-11-25T18:03:11;7.70;99.90
54700;DHT22;40599;53.132;6.090;2022-11-25T18:05:37;7.70;99.90
54700;DHT22;40599;53.132;6.090;2022-11-25T18:08:03;7.70;99.90
54700;DHT22;40599;53.132;6.090;2022-11-25T18:10:28;7.70;99.90
54700;DHT22;40599;53.132;6.090;2022-11-25T18:12:54;7.70;99.90
54700;DHT22;40599;53.132;6.090;2022-11-25T18:15:30;7.80;99.90
54700;DHT22;40599;53.132;6.090;2022-11-25T18:18:00;7.80;99.90
54700;DHT22;40599;53.132;6.090;2022-11-25T18:20:26;7.80;99.90
54700;DHT22;40599;53.132;6.090;2022-11-25T18:22:52;7.80;99.90
54700;DHT22;40599;53.132;6.090;2022-11-25T18:25:19;7.80;99.90
54700;DHT22;40599;53.132;6.090;2022-11-25T18:27:45;7.80;99.90
54700;DHT22;40599;53.132;6.090;2022-11-25T18:30:18;7.70;99.90